createdAt,value
2018-10-05T00:00:12.437Z,80.34
2018-10-05T00:02:39.766Z,80.54
2018-10-05T00:05:07.246Z,81.35
2018-10-05T00:07:34.570Z,81.33
2018-10-05T00:10:01.893Z,81.64
2018-10-05T00:12:29.218Z,81.62
2018-10-05T00:14:57.403Z,81.66
2018-10-05T00:17:24.929Z,81.38
2018-10-05T00:19:52.185Z,82.47
2018-10-05T00:22:19.421Z,82.16
2018-10-05T00:24:46.758Z,82.37
2018-10-05T00:27:14.127Z,81.77
2018-10-05T00:29:41.403Z,81.57
2018-10-05T00:32:08.803Z,81.31
2018-10-05T00:34:36.177Z,82.23
2018-10-05T00:37:03.558Z,82.11
2018-10-05T00:39:31.045Z,81.21
2018-10-05T00:41:58.499Z,80.63
2018-10-05T00:44:25.992Z,80.73
2018-10-05T00:46:53.452Z,81.65
2018-10-05T00:49:20.887Z,81.28
2018-10-05T00:51:48.229Z,81.48
2018-10-05T00:54:15.586Z,82.12
2018-10-05T00:56:42.957Z,83.04
2018-10-05T00:59:10.356Z,81.54
2018-10-05T01:01:37.723Z,80.40
2018-10-05T01:04:05.070Z,79.77
2018-10-05T01:06:32.354Z,79.91
2018-10-05T01:08:59.677Z,79.95
2018-10-05T01:12:51.476Z,80.21
2018-10-05T01:15:18.843Z,80.14
2018-10-05T01:17:46.213Z,80.10
2018-10-05T01:20:13.640Z,80.12
2018-10-05T01:22:40.864Z,80.20
2018-10-05T01:25:08.103Z,79.75
2018-10-05T01:27:35.428Z,80.20
2018-10-05T01:30:02.699Z,78.40
2018-10-05T01:32:30.009Z,78.66
2018-10-05T01:34:57.416Z,78.24
2018-10-05T01:37:24.607Z,78.49
2018-10-05T01:39:51.902Z,79.37
2018-10-05T01:42:19.201Z,80.75
2018-10-05T01:44:46.536Z,80.90
2018-10-05T01:47:13.814Z,80.72
2018-10-05T01:49:41.141Z,80.54
2018-10-05T01:52:08.362Z,81.14
2018-10-05T01:54:35.677Z,80.77
2018-10-05T01:57:02.970Z,81.64
2018-10-05T01:59:30.222Z,81.35
2018-10-05T02:01:57.431Z,80.98
2018-10-05T02:04:24.785Z,81.18
2018-10-05T02:06:52.000Z,81.32
2018-10-05T02:09:19.338Z,80.71
2018-10-05T02:11:46.570Z,80.98
2018-10-05T02:14:13.814Z,81.10
2018-10-05T02:16:41.070Z,81.69
2018-10-05T02:19:08.376Z,81.31
2018-10-05T02:21:35.665Z,80.89
2018-10-05T02:24:02.970Z,80.65
2018-10-05T02:26:30.286Z,80.61
2018-10-05T02:28:57.577Z,79.99
2018-10-05T02:31:24.924Z,80.35
2018-10-05T02:33:52.233Z,80.87
2018-10-05T02:36:19.643Z,80.45
2018-10-05T02:38:47.013Z,81.37
2018-10-05T02:41:14.304Z,81.52
2018-10-05T02:43:41.654Z,81.39
2018-10-05T02:46:09.030Z,81.28
2018-10-05T02:48:36.365Z,80.71
2018-10-05T02:51:03.899Z,80.68
2018-10-05T02:53:31.257Z,81.11
2018-10-05T02:55:58.753Z,80.99
2018-10-05T02:58:26.137Z,80.66
2018-10-05T03:01:04.619Z,80.91
2018-10-05T03:03:31.990Z,81.36
2018-10-05T03:05:59.258Z,81.53
2018-10-05T03:08:26.540Z,81.81
2018-10-05T03:10:53.897Z,81.29
2018-10-05T03:13:21.196Z,81.59
2018-10-05T03:15:48.512Z,81.32
2018-10-05T03:18:15.755Z,81.89
2018-10-05T03:20:43.041Z,81.71
2018-10-05T03:23:10.446Z,82.11
2018-10-05T03:25:37.810Z,81.57
2018-10-05T03:28:05.082Z,82.69
2018-10-05T03:30:32.395Z,82.64
2018-10-05T03:32:59.693Z,82.33
2018-10-05T03:35:27.099Z,82.98
2018-10-05T03:37:54.354Z,82.48
2018-10-05T03:40:21.699Z,82.43
2018-10-05T03:42:49.046Z,81.92
2018-10-05T03:45:16.420Z,82.88
2018-10-05T03:47:43.725Z,84.25
2018-10-05T03:50:11.025Z,83.96
2018-10-05T03:52:38.495Z,85.07
2018-10-05T03:55:05.856Z,82.38
2018-10-05T03:57:33.262Z,81.63
2018-10-05T04:00:01.023Z,81.56
2018-10-05T04:02:28.326Z,81.70
2018-10-05T04:04:55.631Z,81.63
2018-10-05T04:07:22.936Z,81.22
2018-10-05T04:09:50.359Z,81.98
2018-10-05T04:12:17.663Z,82.32
2018-10-05T04:14:44.902Z,83.50
2018-10-05T04:17:12.195Z,83.44
2018-10-05T04:19:39.513Z,83.71
2018-10-05T04:22:06.752Z,83.76
2018-10-05T04:24:33.994Z,84.48
2018-10-05T04:27:01.301Z,84.62
2018-10-05T04:29:28.523Z,84.19
2018-10-05T04:31:55.822Z,84.66
2018-10-05T04:34:23.118Z,84.57
2018-10-05T04:36:50.414Z,84.53
2018-10-05T04:39:17.786Z,84.80
2018-10-05T04:41:45.079Z,85.21
2018-10-05T04:44:12.417Z,85.23
2018-10-05T04:46:39.795Z,85.40
2018-10-05T04:49:07.144Z,86.22
2018-10-05T04:51:34.492Z,86.66
2018-10-05T04:54:01.822Z,86.62
2018-10-05T04:56:29.143Z,87.07
2018-10-05T04:58:56.417Z,87.17
2018-10-05T05:01:23.806Z,86.61
2018-10-05T05:03:51.110Z,86.64
2018-10-05T05:06:18.526Z,86.87
2018-10-05T05:08:45.790Z,84.71
2018-10-05T05:11:13.159Z,85.17
2018-10-05T05:13:40.540Z,85.59
2018-10-05T05:16:07.919Z,85.31
2018-10-05T05:18:35.297Z,85.68
2018-10-05T05:21:02.611Z,85.23
2018-10-05T05:23:29.880Z,84.68
2018-10-05T05:25:57.248Z,83.55
2018-10-05T05:28:24.523Z,84.68
2018-10-05T05:30:51.824Z,83.95
2018-10-05T05:33:19.248Z,83.74
2018-10-05T05:35:46.514Z,84.05
2018-10-05T05:38:13.792Z,83.78
2018-10-05T05:40:41.062Z,83.97
2018-10-05T05:43:08.370Z,84.56
2018-10-05T05:45:35.725Z,83.39
2018-10-05T05:48:03.015Z,83.01
2018-10-05T05:50:30.296Z,83.49
2018-10-05T05:52:57.536Z,83.81
2018-10-05T05:55:24.802Z,84.14
2018-10-05T05:57:52.124Z,84.16
2018-10-05T06:00:19.399Z,84.57
2018-10-05T06:02:46.659Z,85.71
2018-10-05T06:05:13.965Z,85.78
2018-10-05T06:07:41.242Z,85.54
2018-10-05T06:10:08.495Z,84.51
2018-10-05T06:12:35.769Z,81.27
2018-10-05T06:15:03.118Z,82.12
2018-10-05T06:17:30.407Z,81.35
2018-10-05T06:19:57.688Z,81.06
2018-10-05T06:22:25.397Z,81.03
2018-10-05T06:24:52.430Z,81.15
2018-10-05T06:32:05.714Z,84.65
2018-10-05T06:34:33.088Z,85.26
2018-10-05T06:37:00.329Z,83.11
2018-10-05T06:39:27.638Z,82.62
2018-10-05T06:41:54.976Z,83.07
2018-10-05T06:44:22.332Z,83.92
2018-10-05T06:46:49.611Z,82.16
2018-10-05T06:49:16.982Z,81.53
2018-10-05T06:51:44.233Z,78.77
2018-10-05T06:54:11.516Z,76.29
2018-10-05T06:56:38.835Z,73.80
2018-10-05T06:59:06.252Z,65.80
2018-10-05T07:01:33.622Z,61.61
2018-10-05T07:04:00.939Z,58.22
2018-10-05T07:06:28.239Z,55.75
2018-10-05T07:08:55.540Z,52.97
2018-10-05T07:11:22.914Z,53.50
2018-10-05T07:13:50.213Z,51.56
2018-10-05T07:16:17.572Z,51.88
2018-10-05T07:18:44.866Z,51.45
2018-10-05T07:21:12.263Z,51.94
2018-10-05T07:23:39.521Z,49.43
2018-10-05T07:26:06.997Z,46.41
2018-10-05T07:28:34.499Z,46.53
2018-10-05T07:31:01.596Z,47.45
2018-10-05T07:33:28.972Z,46.05
2018-10-05T07:35:57.048Z,46.84
2018-10-05T07:38:24.443Z,44.69
2018-10-05T07:40:51.758Z,44.41
2018-10-05T07:43:19.404Z,42.87
2018-10-05T07:45:46.695Z,43.31
2018-10-05T07:48:13.963Z,43.21
2018-10-05T07:50:41.301Z,43.27
2018-10-05T07:53:08.712Z,42.68
2018-10-05T07:55:36.015Z,42.94
2018-10-05T07:58:03.458Z,43.22
2018-10-05T08:00:30.775Z,43.67
2018-10-05T08:02:58.110Z,44.48
2018-10-05T08:05:25.415Z,45.35
2018-10-05T08:07:52.773Z,45.69
2018-10-05T08:10:20.117Z,45.56
2018-10-05T08:12:47.346Z,46.07
2018-10-05T08:15:14.624Z,45.91
2018-10-05T08:17:41.878Z,44.92
2018-10-05T08:20:09.207Z,44.58
2018-10-05T08:22:36.406Z,47.02
2018-10-05T08:25:03.868Z,47.32
2018-10-05T08:27:31.230Z,46.80
2018-10-05T08:29:58.646Z,48.80
2018-10-05T08:32:26.049Z,48.03
2018-10-05T08:34:53.288Z,48.27
2018-10-05T08:37:20.640Z,47.74
2018-10-05T08:39:47.921Z,48.70
2018-10-05T08:42:15.287Z,50.49
2018-10-05T08:44:42.576Z,51.34
2018-10-05T08:47:09.912Z,50.84
2018-10-05T08:49:37.226Z,50.48
2018-10-05T08:52:04.549Z,50.18
2018-10-05T08:54:31.820Z,48.85
2018-10-05T08:56:59.166Z,49.01
2018-10-05T08:59:26.498Z,48.93
2018-10-05T09:01:53.798Z,48.08
2018-10-05T09:04:21.032Z,50.37
2018-10-05T09:06:48.289Z,49.93
2018-10-05T09:09:15.662Z,50.41
2018-10-05T09:11:42.877Z,51.17
2018-10-05T09:14:10.216Z,50.72
2018-10-05T09:16:37.628Z,49.77
2018-10-05T09:19:04.973Z,49.56
2018-10-05T09:21:32.791Z,52.20
2018-10-05T09:24:00.098Z,50.60
2018-10-05T09:26:27.388Z,49.32
2018-10-05T09:28:54.641Z,49.18
2018-10-05T09:31:21.914Z,49.36
2018-10-05T09:33:49.239Z,48.18
2018-10-05T09:36:16.644Z,47.66
2018-10-05T09:38:44.851Z,47.73
2018-10-05T09:41:12.336Z,45.33
2018-10-05T09:43:39.629Z,45.52
2018-10-05T09:46:07.035Z,45.67
2018-10-05T09:48:34.400Z,45.53
2018-10-05T09:51:01.787Z,44.41
2018-10-05T09:53:29.236Z,44.03
2018-10-05T09:55:57.339Z,43.37
2018-10-05T09:58:24.637Z,41.44
2018-10-05T10:00:57.592Z,42.17
2018-10-05T10:03:29.416Z,39.98
2018-10-05T10:05:56.630Z,40.54
2018-10-05T10:08:24.020Z,40.09
2018-10-05T10:10:51.329Z,38.09
2018-10-05T10:13:18.608Z,39.42
2018-10-05T10:15:45.831Z,38.29
2018-10-05T10:18:13.249Z,39.35
2018-10-05T10:20:40.796Z,38.21
2018-10-05T10:23:08.184Z,37.98
2018-10-05T10:25:35.508Z,39.70
2018-10-05T10:28:02.987Z,40.08
2018-10-05T10:30:30.305Z,40.40
2018-10-05T10:32:57.586Z,39.70
2018-10-05T10:35:24.880Z,39.44
2018-10-05T10:37:52.191Z,39.94
2018-10-05T10:40:19.582Z,39.87
2018-10-05T10:42:47.014Z,38.66
2018-10-05T10:45:14.307Z,39.26
2018-10-05T10:47:41.860Z,38.35
2018-10-05T10:50:09.162Z,39.63
2018-10-05T10:52:36.500Z,41.40
2018-10-05T10:55:04.379Z,39.63
2018-10-05T10:57:31.897Z,37.52
2018-10-05T11:00:02.330Z,36.28
2018-10-05T11:02:29.868Z,37.08
2018-10-05T11:04:57.341Z,37.40
2018-10-05T11:07:24.619Z,39.78
2018-10-05T11:09:51.876Z,36.99
2018-10-05T11:12:19.142Z,38.79
2018-10-05T11:14:46.458Z,38.33
2018-10-05T11:17:14.397Z,39.17
2018-10-05T11:19:41.966Z,37.48
2018-10-05T11:22:09.261Z,36.62
2018-10-05T11:24:36.604Z,36.91
2018-10-05T11:27:03.929Z,33.96
2018-10-05T11:29:31.313Z,34.31
2018-10-05T11:31:58.569Z,35.80
2018-10-05T11:34:25.904Z,36.60
2018-10-05T11:36:53.190Z,34.64
2018-10-05T11:39:20.581Z,33.99
2018-10-05T11:41:47.965Z,32.58
2018-10-05T11:44:15.202Z,33.48
2018-10-05T11:46:43.281Z,34.16
2018-10-05T11:49:10.608Z,35.65
2018-10-05T11:51:37.998Z,34.93
2018-10-05T11:54:05.322Z,35.61
2018-10-05T11:56:32.747Z,35.65
2018-10-05T11:59:00.063Z,34.93
2018-10-05T12:01:27.306Z,35.63
2018-10-05T12:03:54.575Z,35.49
2018-10-05T12:06:21.860Z,37.36
2018-10-05T12:08:49.253Z,37.39
2018-10-05T12:11:16.587Z,39.40
2018-10-05T12:13:43.962Z,39.22
2018-10-05T12:16:11.277Z,38.21
2018-10-05T12:18:38.545Z,37.18
2018-10-05T12:21:05.880Z,36.00
2018-10-05T12:23:33.268Z,36.95
2018-10-05T12:26:00.652Z,36.08
2018-10-05T12:28:27.986Z,37.16
2018-10-05T12:30:55.372Z,34.76
2018-10-05T12:33:22.752Z,36.83
2018-10-05T12:35:50.122Z,37.66
2018-10-05T12:38:17.424Z,37.48
2018-10-05T12:40:44.616Z,38.60
2018-10-05T12:43:12.054Z,41.33
2018-10-05T12:45:39.350Z,39.90
2018-10-05T12:48:06.654Z,40.23
2018-10-05T12:50:34.072Z,38.38
2018-10-05T12:53:01.390Z,39.04
2018-10-05T12:55:28.807Z,39.35
2018-10-05T12:57:56.101Z,38.64
2018-10-05T13:00:23.748Z,36.42
2018-10-05T13:02:51.077Z,36.28
2018-10-05T13:05:18.426Z,37.06
2018-10-05T13:07:45.697Z,38.45
2018-10-05T13:10:13.121Z,36.20
2018-10-05T13:12:40.497Z,36.20
2018-10-05T13:15:07.926Z,37.33
2018-10-05T13:17:35.383Z,38.11
2018-10-05T13:20:03.250Z,40.43
2018-10-05T13:22:49.121Z,38.39
2018-10-05T13:25:16.383Z,37.64
2018-10-05T13:27:43.708Z,37.53
2018-10-05T13:30:11.022Z,39.68
2018-10-05T13:32:38.510Z,39.01
2018-10-05T13:35:05.818Z,37.04
2018-10-05T13:37:33.170Z,36.83
2018-10-05T13:40:00.530Z,36.09
2018-10-05T13:42:27.950Z,37.98
2018-10-05T13:44:55.316Z,39.30
2018-10-05T13:47:22.692Z,37.22
2018-10-05T13:49:50.098Z,36.50
2018-10-05T13:52:17.408Z,36.08
2018-10-05T13:54:44.740Z,38.02
2018-10-05T13:57:12.055Z,37.46
2018-10-05T13:59:39.478Z,36.51
2018-10-05T14:02:06.716Z,37.24
2018-10-05T14:04:33.938Z,36.74
2018-10-05T14:07:01.226Z,36.23
2018-10-05T14:09:28.556Z,35.66
2018-10-05T14:11:55.922Z,34.79
2018-10-05T14:14:23.356Z,34.33
2018-10-05T14:16:50.632Z,36.87
2018-10-05T14:19:17.985Z,36.57
2018-10-05T14:21:45.400Z,35.88
2018-10-05T14:24:12.635Z,35.11
2018-10-05T14:26:40.016Z,34.89
2018-10-05T14:29:07.365Z,36.26
2018-10-05T14:31:34.641Z,37.41
2018-10-05T14:34:01.990Z,37.83
2018-10-05T14:36:29.885Z,37.59
2018-10-05T14:38:57.315Z,37.55
2018-10-05T14:41:24.670Z,35.32
2018-10-05T14:43:52.033Z,35.00
2018-10-05T14:46:19.455Z,35.66
2018-10-05T14:48:46.760Z,35.79
2018-10-05T14:51:14.137Z,34.56
2018-10-05T14:53:41.483Z,35.73
2018-10-05T14:56:09.138Z,35.40
2018-10-05T14:58:36.424Z,33.82
2018-10-05T15:02:33.285Z,34.05
2018-10-05T15:05:00.544Z,33.67
2018-10-05T15:07:27.965Z,33.31
2018-10-05T15:09:55.480Z,34.85
2018-10-05T15:12:22.809Z,34.11
2018-10-05T15:14:50.146Z,34.17
2018-10-05T15:17:17.467Z,34.13
2018-10-05T15:19:44.718Z,34.53
2018-10-05T15:22:12.083Z,35.21
2018-10-05T15:24:39.633Z,34.51
2018-10-05T15:27:07.179Z,33.34
2018-10-05T15:29:34.488Z,33.18
2018-10-05T15:32:02.199Z,33.90
2018-10-05T15:34:29.510Z,34.22
2018-10-05T15:36:56.845Z,34.31
2018-10-05T15:39:24.153Z,34.44
2018-10-05T15:41:51.448Z,34.27
2018-10-05T15:44:19.608Z,34.51
2018-10-05T15:47:04.696Z,34.74
2018-10-05T15:49:32.725Z,35.47
2018-10-05T15:52:00.214Z,35.47
2018-10-05T15:54:27.460Z,38.16
2018-10-05T15:56:54.786Z,38.91
2018-10-05T15:59:22.226Z,37.96
2018-10-05T16:01:49.500Z,38.59
2018-10-05T16:04:17.002Z,37.76
2018-10-05T16:06:44.412Z,38.09
2018-10-05T16:09:11.736Z,38.08
2018-10-05T16:11:39.084Z,38.31
2018-10-05T16:14:06.818Z,38.04
2018-10-05T16:16:34.243Z,39.53
2018-10-05T16:19:02.366Z,39.12
2018-10-05T16:21:29.726Z,40.16
2018-10-05T16:23:57.430Z,40.08
2018-10-05T16:26:25.027Z,40.71
2018-10-05T16:28:52.348Z,41.81
2018-10-05T16:31:19.691Z,41.58
2018-10-05T16:33:46.954Z,43.62
2018-10-05T16:36:14.368Z,44.10
2018-10-05T16:38:41.891Z,45.59
2018-10-05T16:41:09.161Z,46.40
2018-10-05T16:43:36.553Z,46.97
2018-10-05T16:46:03.855Z,47.84
2018-10-05T16:48:31.118Z,48.33
2018-10-05T16:50:58.590Z,49.85
2018-10-05T16:53:25.888Z,50.00
2018-10-05T16:55:53.202Z,50.71
2018-10-05T16:58:20.541Z,51.76
2018-10-05T17:00:47.860Z,52.51
2018-10-05T17:03:15.205Z,53.85
2018-10-05T17:05:42.928Z,54.21
2018-10-05T17:08:11.837Z,54.44
2018-10-05T17:10:39.262Z,54.63
2018-10-05T17:13:06.487Z,54.83
2018-10-05T17:15:33.807Z,55.14
2018-10-05T17:18:01.188Z,55.54
2018-10-05T17:20:28.548Z,56.63
2018-10-05T17:22:55.888Z,56.86
2018-10-05T17:25:23.120Z,57.33
2018-10-05T17:27:51.392Z,57.73
2018-10-05T17:30:18.646Z,58.06
2018-10-05T17:32:45.938Z,58.38
2018-10-05T17:35:13.308Z,58.69
2018-10-05T17:37:40.496Z,59.13
2018-10-05T17:40:08.191Z,59.74
2018-10-05T17:42:35.470Z,60.44
2018-10-05T17:45:02.808Z,60.75
2018-10-05T17:47:30.098Z,60.65
2018-10-05T17:49:57.448Z,60.81
2018-10-05T17:52:24.728Z,61.23
2018-10-05T17:54:52.877Z,61.57
2018-10-05T17:57:20.231Z,61.84
2018-10-05T17:59:47.477Z,61.86
2018-10-05T18:02:14.783Z,62.32
2018-10-05T18:04:42.097Z,62.46
2018-10-05T18:07:09.443Z,62.51
2018-10-05T18:09:36.711Z,62.79
2018-10-05T18:12:04.021Z,63.17
2018-10-05T18:14:32.020Z,63.44
2018-10-05T18:16:59.420Z,63.83
2018-10-05T18:19:26.636Z,64.20
2018-10-05T18:21:53.974Z,64.51
2018-10-05T18:24:21.300Z,65.68
2018-10-05T18:26:48.661Z,65.15
2018-10-05T18:29:16.066Z,66.33
2018-10-05T18:31:43.398Z,65.96
2018-10-05T18:34:10.695Z,66.75
2018-10-05T18:36:38.065Z,67.03
2018-10-05T18:39:07.262Z,66.70
2018-10-05T18:41:34.818Z,67.15
2018-10-05T18:44:02.159Z,67.77
2018-10-05T18:46:29.358Z,68.22
2018-10-05T18:48:56.678Z,67.41
2018-10-05T18:51:23.993Z,67.56
2018-10-05T18:53:51.391Z,67.64
2018-10-05T18:56:30.342Z,68.13
2018-10-05T18:58:57.667Z,67.60
2018-10-05T19:01:24.979Z,68.48
2018-10-05T19:03:52.312Z,68.27
2018-10-05T19:06:19.674Z,68.15
2018-10-05T19:08:47.031Z,68.88
2018-10-05T19:11:14.423Z,68.68
2018-10-05T19:13:41.772Z,69.98
2018-10-05T19:16:09.062Z,69.71
2018-10-05T19:18:36.424Z,69.99
2018-10-05T19:21:03.804Z,69.99
2018-10-05T19:23:31.120Z,69.99
2018-10-05T19:25:58.518Z,70.68
2018-10-05T19:28:25.807Z,70.36
2018-10-05T19:30:53.109Z,71.29
2018-10-05T19:33:20.707Z,71.73
2018-10-05T19:35:48.031Z,72.61
2018-10-05T19:38:15.399Z,72.03
2018-10-05T19:40:42.714Z,72.17
2018-10-05T19:43:10.030Z,71.73
2018-10-05T19:45:37.368Z,72.70
2018-10-05T19:48:04.678Z,72.63
2018-10-05T19:50:31.940Z,71.96
2018-10-05T19:52:59.331Z,72.26
2018-10-05T19:55:26.942Z,72.29
2018-10-05T19:57:54.413Z,72.17
2018-10-05T20:00:21.676Z,72.52
2018-10-05T20:02:48.932Z,73.68
2018-10-05T20:05:16.482Z,73.66
2018-10-05T20:07:43.892Z,73.96
2018-10-05T20:10:11.219Z,73.94
2018-10-05T20:12:38.529Z,73.10
2018-10-05T20:15:05.954Z,73.29
2018-10-05T20:17:33.333Z,73.94
2018-10-05T20:20:00.586Z,73.99
2018-10-05T20:22:27.883Z,73.50
2018-10-05T20:24:55.172Z,73.67
2018-10-05T20:27:22.467Z,75.04
2018-10-05T20:29:49.852Z,75.05
2018-10-05T20:32:17.287Z,74.67
2018-10-05T20:34:44.656Z,75.39
2018-10-05T20:37:12.248Z,75.80
2018-10-05T20:39:39.546Z,75.77
2018-10-05T20:42:06.908Z,76.25
2018-10-05T20:44:34.210Z,75.37
2018-10-05T20:47:01.444Z,75.76
2018-10-05T20:49:28.903Z,75.48
2018-10-05T20:51:56.202Z,75.48
2018-10-05T20:54:23.479Z,76.12
2018-10-05T20:56:50.812Z,76.10
2018-10-05T20:59:18.308Z,75.52
2018-10-05T21:01:45.615Z,75.16
2018-10-05T21:04:13.310Z,76.16
2018-10-05T21:06:40.708Z,76.08
2018-10-05T21:09:08.973Z,75.71
2018-10-05T21:11:36.316Z,75.86
2018-10-05T21:14:03.868Z,76.16
2018-10-05T21:16:31.174Z,75.71
2018-10-05T21:18:58.536Z,76.15
2018-10-05T21:21:26.529Z,77.02
2018-10-05T21:23:53.805Z,77.32
2018-10-05T21:26:21.071Z,77.29
2018-10-05T21:28:48.414Z,77.38
2018-10-05T21:31:15.666Z,77.02
2018-10-05T21:33:42.939Z,76.71
2018-10-05T21:36:10.343Z,76.38
2018-10-05T21:38:37.641Z,77.15
2018-10-05T21:41:05.007Z,76.47
2018-10-05T21:43:32.377Z,77.04
2018-10-05T21:45:59.716Z,78.34
2018-10-05T21:48:27.022Z,78.18
2018-10-05T21:50:54.295Z,76.12
2018-10-05T21:53:21.863Z,77.43
2018-10-05T21:55:49.176Z,77.64
2018-10-05T21:58:16.595Z,77.05
2018-10-05T22:00:43.910Z,77.07
2018-10-05T22:03:11.428Z,77.87
2018-10-05T22:05:38.958Z,77.74
2018-10-05T22:08:06.344Z,77.52
2018-10-05T22:10:33.697Z,78.21
2018-10-05T22:13:01.247Z,78.12
2018-10-05T22:15:28.530Z,78.22
2018-10-05T22:17:55.931Z,78.43
2018-10-05T22:20:23.496Z,78.78
2018-10-05T22:22:51.053Z,79.05
2018-10-05T22:25:18.488Z,78.65
2018-10-05T22:27:45.847Z,79.99
2018-10-05T22:30:13.087Z,78.93
2018-10-05T22:32:40.358Z,78.17
2018-10-05T22:35:07.690Z,78.53
2018-10-05T22:37:34.990Z,78.79
2018-10-05T22:40:02.306Z,79.13
2018-10-05T22:42:29.608Z,79.79
2018-10-05T22:44:56.908Z,79.94
2018-10-05T22:47:24.194Z,80.05
2018-10-05T22:49:51.485Z,79.65
2018-10-05T22:52:18.843Z,79.95
2018-10-05T22:54:46.075Z,79.83
2018-10-05T22:57:13.346Z,80.38
2018-10-05T22:59:40.628Z,79.97
2018-10-05T23:02:07.936Z,81.11
2018-10-05T23:04:35.273Z,81.15
2018-10-05T23:07:02.677Z,80.77
2018-10-05T23:09:29.955Z,80.68
2018-10-05T23:11:57.299Z,79.96
2018-10-05T23:14:24.629Z,80.12
2018-10-05T23:16:51.898Z,79.43
2018-10-05T23:19:19.246Z,79.78
2018-10-05T23:21:46.546Z,80.35
2018-10-05T23:24:13.837Z,79.90
2018-10-05T23:28:05.604Z,81.16
2018-10-05T23:30:32.953Z,82.77
2018-10-05T23:33:00.233Z,82.19
2018-10-05T23:35:27.536Z,81.49
2018-10-05T23:37:54.799Z,80.63
2018-10-05T23:40:22.086Z,80.31
2018-10-05T23:43:53.353Z,81.03
2018-10-05T23:46:20.656Z,80.49
2018-10-05T23:48:47.922Z,80.97
2018-10-05T23:51:15.280Z,81.90
2018-10-05T23:53:42.713Z,82.56
2018-10-05T23:56:09.971Z,82.21
2018-10-05T23:58:37.305Z,81.91
